sensor_id;sensor_type;location;lat;lon;timestamp;temperature;humidity
27072;DHT22;14613;46.308;25.288;2022-10-16T00:02:00;8.90;82.50
27072;DHT22;14613;46.308;25.288;2022-10-16T00:04:26;8.90;82.50
27072;DHT22;14613;46.308;25.288;2022-10-16T00:06:51;8.90;82.50
27072;DHT22;14613;46.308;25.288;2022-10-16T00:09:17;8.80;82.50
27072;DHT22;14613;46.308;25.288;2022-10-16T00:11:43;8.80;82.50
27072;DHT22;14613;46.308;25.288;2022-10-16T00:14:12;8.80;82.60
27072;DHT22;14613;46.308;25.288;2022-10-16T00:16:39;8.70;82.60
27072;DHT22;14613;46.308;25.288;2022-10-16T00:19:04;8.70;82.70
27072;DHT22;14613;46.308;25.288;2022-10-16T00:21:31;8.70;82.70
27072;DHT22;14613;46.308;25.288;2022-10-16T00:23:59;8.60;82.70
27072;DHT22;14613;46.308;25.288;2022-10-16T00:26:26;8.60;82.80
27072;DHT22;14613;46.308;25.288;2022-10-16T00:28:52;8.60;82.80
27072;DHT22;14613;46.308;25.288;2022-10-16T00:31:20;8.60;82.90
27072;DHT22;14613;46.308;25.288;2022-10-16T00:33:46;8.50;82.90
27072;DHT22;14613;46.308;25.288;2022-10-16T00:36:14;8.50;82.90
27072;DHT22;14613;46.308;25.288;2022-10-16T00:38:41;8.40;82.90
27072;DHT22;14613;46.308;25.288;2022-10-16T00:41:09;8.40;83.10
27072;DHT22;14613;46.308;25.288;2022-10-16T00:46:10;8.30;83.20
27072;DHT22;14613;46.308;25.288;2022-10-16T00:48:38;8.30;83.30
27072;DHT22;14613;46.308;25.288;2022-10-16T00:51:05;8.30;83.30
27072;DHT22;14613;46.308;25.288;2022-10-16T00:53:32;8.30;83.30
27072;DHT22;14613;46.308;25.288;2022-10-16T00:55:58;8.20;83.40
27072;DHT22;14613;46.308;25.288;2022-10-16T00:58:23;8.20;83.40
27072;DHT22;14613;46.308;25.288;2022-10-16T01:00:49;8.20;83.40
27072;DHT22;14613;46.308;25.288;2022-10-16T01:03:34;8.20;83.40
27072;DHT22;14613;46.308;25.288;2022-10-16T01:06:24;8.20;83.30
27072;DHT22;14613;46.308;25.288;2022-10-16T01:14:15;8.30;83.30
27072;DHT22;14613;46.308;25.288;2022-10-16T01:16:52;8.20;83.20
27072;DHT22;14613;46.308;25.288;2022-10-16T01:21:52;8.20;83.10
27072;DHT22;14613;46.308;25.288;2022-10-16T01:24:37;8.20;82.90
27072;DHT22;14613;46.308;25.288;2022-10-16T01:32:53;8.10;83.00
27072;DHT22;14613;46.308;25.288;2022-10-16T01:35:25;8.10;83.10
27072;DHT22;14613;46.308;25.288;2022-10-16T01:38:06;8.00;83.10
27072;DHT22;14613;46.308;25.288;2022-10-16T01:40:35;8.00;83.10
27072;DHT22;14613;46.308;25.288;2022-10-16T01:43:06;8.00;83.20
27072;DHT22;14613;46.308;25.288;2022-10-16T01:45:34;7.90;84.00
27072;DHT22;14613;46.308;25.288;2022-10-16T01:48:02;7.90;83.30
27072;DHT22;14613;46.308;25.288;2022-10-16T01:50:33;7.90;83.30
27072;DHT22;14613;46.308;25.288;2022-10-16T01:53:02;7.90;83.40
27072;DHT22;14613;46.308;25.288;2022-10-16T01:55:35;7.90;83.50
27072;DHT22;14613;46.308;25.288;2022-10-16T01:58:04;7.80;83.50
27072;DHT22;14613;46.308;25.288;2022-10-16T02:00:30;7.80;83.50
27072;DHT22;14613;46.308;25.288;2022-10-16T02:02:57;7.80;83.60
27072;DHT22;14613;46.308;25.288;2022-10-16T02:05:30;7.80;83.50
27072;DHT22;14613;46.308;25.288;2022-10-16T02:07:56;7.80;83.60
27072;DHT22;14613;46.308;25.288;2022-10-16T02:10:24;7.90;83.50
27072;DHT22;14613;46.308;25.288;2022-10-16T02:12:55;7.90;83.50
27072;DHT22;14613;46.308;25.288;2022-10-16T02:15:22;7.90;83.50
27072;DHT22;14613;46.308;25.288;2022-10-16T02:17:47;7.90;83.40
27072;DHT22;14613;46.308;25.288;2022-10-16T02:20:13;7.90;83.30
27072;DHT22;14613;46.308;25.288;2022-10-16T02:22:43;7.90;83.20
27072;DHT22;14613;46.308;25.288;2022-10-16T02:25:40;7.90;83.20
27072;DHT22;14613;46.308;25.288;2022-10-16T02:28:09;7.80;83.20
27072;DHT22;14613;46.308;25.288;2022-10-16T02:30:46;7.80;83.30
27072;DHT22;14613;46.308;25.288;2022-10-16T02:33:16;7.70;84.10
27072;DHT22;14613;46.308;25.288;2022-10-16T02:35:44;7.70;83.40
27072;DHT22;14613;46.308;25.288;2022-10-16T02:38:12;7.70;83.50
27072;DHT22;14613;46.308;25.288;2022-10-16T02:40:39;7.60;83.50
27072;DHT22;14613;46.308;25.288;2022-10-16T02:43:05;7.60;83.60
27072;DHT22;14613;46.308;25.288;2022-10-16T02:45:31;7.50;83.60
27072;DHT22;14613;46.308;25.288;2022-10-16T02:47:57;7.50;83.70
27072;DHT22;14613;46.308;25.288;2022-10-16T02:50:22;7.50;83.80
27072;DHT22;14613;46.308;25.288;2022-10-16T02:52:49;7.50;83.80
27072;DHT22;14613;46.308;25.288;2022-10-16T02:55:15;7.40;83.90
27072;DHT22;14613;46.308;25.288;2022-10-16T02:57:41;7.40;83.90
27072;DHT22;14613;46.308;25.288;2022-10-16T03:00:09;7.40;84.00
27072;DHT22;14613;46.308;25.288;2022-10-16T03:02:36;7.40;83.90
27072;DHT22;14613;46.308;25.288;2022-10-16T03:05:02;7.40;84.00
27072;DHT22;14613;46.308;25.288;2022-10-16T03:07:28;7.30;83.90
27072;DHT22;14613;46.308;25.288;2022-10-16T03:09:54;7.30;83.90
27072;DHT22;14613;46.308;25.288;2022-10-16T03:12:21;7.30;83.90
27072;DHT22;14613;46.308;25.288;2022-10-16T03:14:47;7.30;84.00
27072;DHT22;14613;46.308;25.288;2022-10-16T03:17:12;7.30;84.00
27072;DHT22;14613;46.308;25.288;2022-10-16T03:19:39;7.30;84.10
27072;DHT22;14613;46.308;25.288;2022-10-16T03:22:05;7.20;84.00
27072;DHT22;14613;46.308;25.288;2022-10-16T03:24:30;7.20;84.00
27072;DHT22;14613;46.308;25.288;2022-10-16T03:26:56;7.20;84.00
27072;DHT22;14613;46.308;25.288;2022-10-16T03:29:22;7.20;84.00
27072;DHT22;14613;46.308;25.288;2022-10-16T03:31:48;7.20;84.10
27072;DHT22;14613;46.308;25.288;2022-10-16T03:34:15;7.20;84.10
27072;DHT22;14613;46.308;25.288;2022-10-16T03:36:40;7.10;84.10
27072;DHT22;14613;46.308;25.288;2022-10-16T03:39:06;7.10;84.10
27072;DHT22;14613;46.308;25.288;2022-10-16T03:41:32;7.10;84.10
27072;DHT22;14613;46.308;25.288;2022-10-16T03:43:58;7.10;84.20
27072;DHT22;14613;46.308;25.288;2022-10-16T03:46:23;7.10;84.10
27072;DHT22;14613;46.308;25.288;2022-10-16T03:48:49;7.10;84.10
27072;DHT22;14613;46.308;25.288;2022-10-16T03:51:15;7.10;84.10
27072;DHT22;14613;46.308;25.288;2022-10-16T03:53:41;7.00;84.00
27072;DHT22;14613;46.308;25.288;2022-10-16T03:56:06;7.00;84.10
27072;DHT22;14613;46.308;25.288;2022-10-16T03:58:32;7.00;84.20
27072;DHT22;14613;46.308;25.288;2022-10-16T04:00:58;7.00;84.30
27072;DHT22;14613;46.308;25.288;2022-10-16T04:03:24;6.90;84.20
27072;DHT22;14613;46.308;25.288;2022-10-16T04:05:50;6.90;84.20
27072;DHT22;14613;46.308;25.288;2022-10-16T04:08:16;6.90;84.20
27072;DHT22;14613;46.308;25.288;2022-10-16T04:10:45;6.90;84.30
27072;DHT22;14613;46.308;25.288;2022-10-16T04:13:11;6.90;84.20
27072;DHT22;14613;46.308;25.288;2022-10-16T04:15:37;6.90;84.20
27072;DHT22;14613;46.308;25.288;2022-10-16T04:18:04;6.90;84.20
27072;DHT22;14613;46.308;25.288;2022-10-16T04:20:30;6.80;84.20
27072;DHT22;14613;46.308;25.288;2022-10-16T04:22:56;6.80;84.30
27072;DHT22;14613;46.308;25.288;2022-10-16T04:25:21;6.80;84.30
27072;DHT22;14613;46.308;25.288;2022-10-16T04:27:47;6.80;84.30
27072;DHT22;14613;46.308;25.288;2022-10-16T04:30:13;6.80;84.30
27072;DHT22;14613;46.308;25.288;2022-10-16T04:32:39;6.80;84.40
27072;DHT22;14613;46.308;25.288;2022-10-16T04:35:05;6.80;84.40
27072;DHT22;14613;46.308;25.288;2022-10-16T04:37:31;6.80;84.40
27072;DHT22;14613;46.308;25.288;2022-10-16T04:39:56;6.80;84.40
27072;DHT22;14613;46.308;25.288;2022-10-16T04:42:22;6.80;84.40
27072;DHT22;14613;46.308;25.288;2022-10-16T04:44:48;6.80;84.40
27072;DHT22;14613;46.308;25.288;2022-10-16T04:47:14;6.80;84.40
27072;DHT22;14613;46.308;25.288;2022-10-16T04:49:39;6.80;84.30
27072;DHT22;14613;46.308;25.288;2022-10-16T04:52:05;6.80;84.40
27072;DHT22;14613;46.308;25.288;2022-10-16T04:54:31;6.80;84.40
27072;DHT22;14613;46.308;25.288;2022-10-16T04:56:57;6.80;84.40
27072;DHT22;14613;46.308;25.288;2022-10-16T04:59:23;6.80;84.40
27072;DHT22;14613;46.308;25.288;2022-10-16T05:01:49;6.80;84.40
27072;DHT22;14613;46.308;25.288;2022-10-16T05:04:15;6.80;84.60
27072;DHT22;14613;46.308;25.288;2022-10-16T05:06:41;6.80;84.60
27072;DHT22;14613;46.308;25.288;2022-10-16T05:09:08;6.70;84.60
27072;DHT22;14613;46.308;25.288;2022-10-16T05:11:34;6.70;84.70
27072;DHT22;14613;46.308;25.288;2022-10-16T05:14:00;6.80;84.80
27072;DHT22;14613;46.308;25.288;2022-10-16T05:16:26;6.80;84.90
27072;DHT22;14613;46.308;25.288;2022-10-16T05:18:52;6.80;84.90
27072;DHT22;14613;46.308;25.288;2022-10-16T05:21:18;6.90;84.90
27072;DHT22;14613;46.308;25.288;2022-10-16T05:23:44;6.90;84.90
27072;DHT22;14613;46.308;25.288;2022-10-16T05:26:10;6.90;84.90
27072;DHT22;14613;46.308;25.288;2022-10-16T05:28:36;7.00;85.00
27072;DHT22;14613;46.308;25.288;2022-10-16T05:31:06;7.00;85.10
27072;DHT22;14613;46.308;25.288;2022-10-16T05:33:32;7.10;85.20
27072;DHT22;14613;46.308;25.288;2022-10-16T05:36:02;7.20;85.30
27072;DHT22;14613;46.308;25.288;2022-10-16T05:38:28;7.30;85.30
27072;DHT22;14613;46.308;25.288;2022-10-16T05:40:54;7.50;85.40
27072;DHT22;14613;46.308;25.288;2022-10-16T05:43:20;7.60;85.30
27072;DHT22;14613;46.308;25.288;2022-10-16T05:45:54;7.70;85.20
27072;DHT22;14613;46.308;25.288;2022-10-16T05:48:20;7.90;85.10
27072;DHT22;14613;46.308;25.288;2022-10-16T05:50:46;8.00;84.90
27072;DHT22;14613;46.308;25.288;2022-10-16T05:53:11;8.10;84.80
27072;DHT22;14613;46.308;25.288;2022-10-16T05:55:37;8.20;84.70
27072;DHT22;14613;46.308;25.288;2022-10-16T05:58:03;8.40;84.80
27072;DHT22;14613;46.308;25.288;2022-10-16T06:00:29;8.50;84.80
27072;DHT22;14613;46.308;25.288;2022-10-16T06:02:54;8.60;84.90
27072;DHT22;14613;46.308;25.288;2022-10-16T06:05:50;8.80;84.70
27072;DHT22;14613;46.308;25.288;2022-10-16T06:08:16;9.00;84.50
27072;DHT22;14613;46.308;25.288;2022-10-16T06:10:42;9.10;84.40
27072;DHT22;14613;46.308;25.288;2022-10-16T06:13:09;9.30;85.20
27072;DHT22;14613;46.308;25.288;2022-10-16T06:15:35;9.50;84.40
27072;DHT22;14613;46.308;25.288;2022-10-16T06:18:00;9.70;84.30
27072;DHT22;14613;46.308;25.288;2022-10-16T06:20:26;9.90;84.20
27072;DHT22;14613;46.308;25.288;2022-10-16T06:22:57;10.00;84.00
27072;DHT22;14613;46.308;25.288;2022-10-16T06:28:30;10.40;84.20
27072;DHT22;14613;46.308;25.288;2022-10-16T06:31:00;10.60;84.00
27072;DHT22;14613;46.308;25.288;2022-10-16T06:33:25;10.80;84.00
27072;DHT22;14613;46.308;25.288;2022-10-16T06:35:51;11.00;84.00
27072;DHT22;14613;46.308;25.288;2022-10-16T06:38:17;11.20;84.00
27072;DHT22;14613;46.308;25.288;2022-10-16T06:40:43;11.50;83.80
27072;DHT22;14613;46.308;25.288;2022-10-16T06:43:09;11.70;83.60
27072;DHT22;14613;46.308;25.288;2022-10-16T06:45:34;12.00;83.40
27072;DHT22;14613;46.308;25.288;2022-10-16T06:48:00;12.20;83.00
27072;DHT22;14613;46.308;25.288;2022-10-16T06:50:26;12.40;82.90
27072;DHT22;14613;46.308;25.288;2022-10-16T06:52:51;12.50;82.60
27072;DHT22;14613;46.308;25.288;2022-10-16T06:55:17;12.70;82.40
27072;DHT22;14613;46.308;25.288;2022-10-16T06:57:43;12.90;82.20
27072;DHT22;14613;46.308;25.288;2022-10-16T07:00:09;13.10;82.10
27072;DHT22;14613;46.308;25.288;2022-10-16T07:02:35;13.30;82.00
27072;DHT22;14613;46.308;25.288;2022-10-16T07:05:01;13.60;81.90
27072;DHT22;14613;46.308;25.288;2022-10-16T07:07:27;13.80;81.60
27072;DHT22;14613;46.308;25.288;2022-10-16T07:09:52;14.10;81.20
27072;DHT22;14613;46.308;25.288;2022-10-16T07:12:18;14.20;80.30
27072;DHT22;14613;46.308;25.288;2022-10-16T07:14:44;14.40;80.00
27072;DHT22;14613;46.308;25.288;2022-10-16T07:17:10;14.40;79.70
27072;DHT22;14613;46.308;25.288;2022-10-16T07:19:36;14.50;79.60
27072;DHT22;14613;46.308;25.288;2022-10-16T07:22:09;14.50;79.30
27072;DHT22;14613;46.308;25.288;2022-10-16T07:24:38;14.60;79.40
27072;DHT22;14613;46.308;25.288;2022-10-16T07:27:03;14.80;79.60
27072;DHT22;14613;46.308;25.288;2022-10-16T07:29:29;15.00;79.40
27072;DHT22;14613;46.308;25.288;2022-10-16T07:31:55;15.30;79.10
27072;DHT22;14613;46.308;25.288;2022-10-16T07:34:21;15.50;78.80
27072;DHT22;14613;46.308;25.288;2022-10-16T07:36:50;15.70;78.40
27072;DHT22;14613;46.308;25.288;2022-10-16T07:39:16;15.90;77.80
27072;DHT22;14613;46.308;25.288;2022-10-16T07:41:42;16.10;77.20
27072;DHT22;14613;46.308;25.288;2022-10-16T07:44:08;16.20;76.70
27072;DHT22;14613;46.308;25.288;2022-10-16T07:46:35;16.30;76.50
27072;DHT22;14613;46.308;25.288;2022-10-16T07:49:02;16.50;76.50
27072;DHT22;14613;46.308;25.288;2022-10-16T07:54:40;16.80;76.20
27072;DHT22;14613;46.308;25.288;2022-10-16T07:57:05;17.00;75.80
27072;DHT22;14613;46.308;25.288;2022-10-16T07:59:31;17.10;75.20
27072;DHT22;14613;46.308;25.288;2022-10-16T08:01:57;17.20;75.10
27072;DHT22;14613;46.308;25.288;2022-10-16T08:04:23;17.40;75.10
27072;DHT22;14613;46.308;25.288;2022-10-16T08:06:48;17.50;74.80
27072;DHT22;14613;46.308;25.288;2022-10-16T08:09:15;17.70;74.80
27072;DHT22;14613;46.308;25.288;2022-10-16T08:11:41;17.80;74.30
27072;DHT22;14613;46.308;25.288;2022-10-16T08:14:06;18.00;74.10
27072;DHT22;14613;46.308;25.288;2022-10-16T08:16:32;18.20;73.90
27072;DHT22;14613;46.308;25.288;2022-10-16T08:18:58;18.30;73.40
27072;DHT22;14613;46.308;25.288;2022-10-16T08:21:23;18.40;73.10
27072;DHT22;14613;46.308;25.288;2022-10-16T08:23:50;18.60;72.80
27072;DHT22;14613;46.308;25.288;2022-10-16T08:29:10;18.60;72.30
27072;DHT22;14613;46.308;25.288;2022-10-16T08:31:36;18.70;72.40
27072;DHT22;14613;46.308;25.288;2022-10-16T08:34:05;18.80;72.20
27072;DHT22;14613;46.308;25.288;2022-10-16T08:36:31;19.00;72.00
27072;DHT22;14613;46.308;25.288;2022-10-16T08:38:56;19.10;71.90
27072;DHT22;14613;46.308;25.288;2022-10-16T08:49:42;19.60;70.90
27072;DHT22;14613;46.308;25.288;2022-10-16T08:52:12;19.70;70.60
27072;DHT22;14613;46.308;25.288;2022-10-16T08:54:47;19.80;70.30
27072;DHT22;14613;46.308;25.288;2022-10-16T08:57:21;19.80;70.10
27072;DHT22;14613;46.308;25.288;2022-10-16T08:59:48;19.90;70.10
27072;DHT22;14613;46.308;25.288;2022-10-16T09:02:29;20.00;70.10
27072;DHT22;14613;46.308;25.288;2022-10-16T09:10:38;20.10;69.20
27072;DHT22;14613;46.308;25.288;2022-10-16T09:13:27;20.20;69.10
27072;DHT22;14613;46.308;25.288;2022-10-16T09:16:30;20.30;69.00
27072;DHT22;14613;46.308;25.288;2022-10-16T09:21:31;20.40;68.70
27072;DHT22;14613;46.308;25.288;2022-10-16T09:24:15;20.50;68.90
27072;DHT22;14613;46.308;25.288;2022-10-16T09:26:41;20.50;68.60
27072;DHT22;14613;46.308;25.288;2022-10-16T09:29:11;20.50;68.60
27072;DHT22;14613;46.308;25.288;2022-10-16T09:31:37;20.50;68.70
27072;DHT22;14613;46.308;25.288;2022-10-16T09:34:04;20.60;68.70
27072;DHT22;14613;46.308;25.288;2022-10-16T09:36:38;20.60;68.70
27072;DHT22;14613;46.308;25.288;2022-10-16T09:39:09;20.60;68.60
27072;DHT22;14613;46.308;25.288;2022-10-16T09:41:40;20.60;68.30
27072;DHT22;14613;46.308;25.288;2022-10-16T09:44:36;20.70;68.00
27072;DHT22;14613;46.308;25.288;2022-10-16T09:47:15;20.70;67.50
27072;DHT22;14613;46.308;25.288;2022-10-16T09:52:23;20.90;67.60
27072;DHT22;14613;46.308;25.288;2022-10-16T09:55:02;21.10;67.40
27072;DHT22;14613;46.308;25.288;2022-10-16T09:57:34;21.20;67.10
27072;DHT22;14613;46.308;25.288;2022-10-16T10:00:08;21.40;67.00
27072;DHT22;14613;46.308;25.288;2022-10-16T10:02:35;21.50;66.80
27072;DHT22;14613;46.308;25.288;2022-10-16T10:05:04;21.60;66.30
27072;DHT22;14613;46.308;25.288;2022-10-16T10:07:37;21.70;65.90
27072;DHT22;14613;46.308;25.288;2022-10-16T10:10:18;21.80;65.80
27072;DHT22;14613;46.308;25.288;2022-10-16T10:12:45;21.70;65.20
27072;DHT22;14613;46.308;25.288;2022-10-16T10:15:12;21.70;65.20
27072;DHT22;14613;46.308;25.288;2022-10-16T10:20:34;21.90;65.20
27072;DHT22;14613;46.308;25.288;2022-10-16T10:23:13;22.00;65.20
27072;DHT22;14613;46.308;25.288;2022-10-16T10:26:07;22.10;65.00
27072;DHT22;14613;46.308;25.288;2022-10-16T10:31:46;22.10;63.80
27072;DHT22;14613;46.308;25.288;2022-10-16T10:40:38;22.00;63.50
27072;DHT22;14613;46.308;25.288;2022-10-16T10:45:43;22.10;63.20
27072;DHT22;14613;46.308;25.288;2022-10-16T10:50:49;22.10;62.60
27072;DHT22;14613;46.308;25.288;2022-10-16T10:53:39;22.00;62.60
27072;DHT22;14613;46.308;25.288;2022-10-16T11:02:03;21.80;62.60
27072;DHT22;14613;46.308;25.288;2022-10-16T11:07:33;21.90;62.80
27072;DHT22;14613;46.308;25.288;2022-10-16T11:10:13;22.00;62.80
27072;DHT22;14613;46.308;25.288;2022-10-16T11:12:46;22.20;62.60
27072;DHT22;14613;46.308;25.288;2022-10-16T11:15:24;22.30;62.30
27072;DHT22;14613;46.308;25.288;2022-10-16T11:20:46;22.30;62.10
27072;DHT22;14613;46.308;25.288;2022-10-16T11:23:15;22.50;62.30
27072;DHT22;14613;46.308;25.288;2022-10-16T11:25:43;22.50;62.10
27072;DHT22;14613;46.308;25.288;2022-10-16T11:28:19;22.60;61.80
27072;DHT22;14613;46.308;25.288;2022-10-16T11:31:05;22.50;61.10
27072;DHT22;14613;46.308;25.288;2022-10-16T11:33:47;22.50;61.20
27072;DHT22;14613;46.308;25.288;2022-10-16T11:39:00;22.60;61.70
27072;DHT22;14613;46.308;25.288;2022-10-16T11:41:34;22.70;61.80
27072;DHT22;14613;46.308;25.288;2022-10-16T11:46:31;22.70;60.90
27072;DHT22;14613;46.308;25.288;2022-10-16T11:49:20;22.70;60.90
27072;DHT22;14613;46.308;25.288;2022-10-16T11:52:06;22.70;61.40
27072;DHT22;14613;46.308;25.288;2022-10-16T11:55:13;22.70;61.10
27072;DHT22;14613;46.308;25.288;2022-10-16T11:57:54;22.60;60.70
27072;DHT22;14613;46.308;25.288;2022-10-16T12:00:27;22.60;60.90
27072;DHT22;14613;46.308;25.288;2022-10-16T12:03:19;22.60;60.90
27072;DHT22;14613;46.308;25.288;2022-10-16T12:08:20;22.60;60.50
27072;DHT22;14613;46.308;25.288;2022-10-16T12:10:47;22.60;60.40
27072;DHT22;14613;46.308;25.288;2022-10-16T12:13:33;22.50;60.30
27072;DHT22;14613;46.308;25.288;2022-10-16T12:18:45;22.50;60.20
27072;DHT22;14613;46.308;25.288;2022-10-16T12:21:13;22.30;60.00
27072;DHT22;14613;46.308;25.288;2022-10-16T12:23:58;22.20;60.30
27072;DHT22;14613;46.308;25.288;2022-10-16T12:26:27;22.20;60.60
27072;DHT22;14613;46.308;25.288;2022-10-16T12:29:12;22.20;60.60
27072;DHT22;14613;46.308;25.288;2022-10-16T12:31:46;22.20;60.70
27072;DHT22;14613;46.308;25.288;2022-10-16T12:34:27;22.20;60.50
27072;DHT22;14613;46.308;25.288;2022-10-16T12:36:54;22.20;60.50
27072;DHT22;14613;46.308;25.288;2022-10-16T12:39:24;22.20;60.50
27072;DHT22;14613;46.308;25.288;2022-10-16T12:42:22;22.30;60.60
27072;DHT22;14613;46.308;25.288;2022-10-16T12:44:48;22.30;60.50
27072;DHT22;14613;46.308;25.288;2022-10-16T12:49:56;22.20;60.30
27072;DHT22;14613;46.308;25.288;2022-10-16T12:54:58;22.10;60.00
27072;DHT22;14613;46.308;25.288;2022-10-16T12:57:37;22.20;60.20
27072;DHT22;14613;46.308;25.288;2022-10-16T13:00:22;22.10;60.20
27072;DHT22;14613;46.308;25.288;2022-10-16T13:14:27;22.10;60.10
27072;DHT22;14613;46.308;25.288;2022-10-16T13:28:22;22.00;59.80
27072;DHT22;14613;46.308;25.288;2022-10-16T13:30:55;21.90;59.80
27072;DHT22;14613;46.308;25.288;2022-10-16T13:33:37;21.90;59.70
27072;DHT22;14613;46.308;25.288;2022-10-16T13:36:04;21.90;59.60
27072;DHT22;14613;46.308;25.288;2022-10-16T13:38:35;21.90;59.60
27072;DHT22;14613;46.308;25.288;2022-10-16T13:41:03;21.90;59.40
27072;DHT22;14613;46.308;25.288;2022-10-16T13:43:41;21.80;59.40
27072;DHT22;14613;46.308;25.288;2022-10-16T13:46:26;21.80;59.40
27072;DHT22;14613;46.308;25.288;2022-10-16T13:49:03;21.80;59.20
27072;DHT22;14613;46.308;25.288;2022-10-16T13:51:30;21.70;59.10
27072;DHT22;14613;46.308;25.288;2022-10-16T13:53:56;21.70;59.10
27072;DHT22;14613;46.308;25.288;2022-10-16T13:56:28;21.70;59.10
27072;DHT22;14613;46.308;25.288;2022-10-16T13:59:06;21.60;59.00
27072;DHT22;14613;46.308;25.288;2022-10-16T14:01:52;21.60;59.00
27072;DHT22;14613;46.308;25.288;2022-10-16T14:04:19;21.60;59.00
27072;DHT22;14613;46.308;25.288;2022-10-16T14:06:48;21.60;59.10
27072;DHT22;14613;46.308;25.288;2022-10-16T14:12:03;21.50;59.00
27072;DHT22;14613;46.308;25.288;2022-10-16T14:14:44;21.50;59.00
27072;DHT22;14613;46.308;25.288;2022-10-16T14:17:15;21.40;59.00
27072;DHT22;14613;46.308;25.288;2022-10-16T14:19:46;21.30;59.10
27072;DHT22;14613;46.308;25.288;2022-10-16T14:22:33;21.30;59.00
27072;DHT22;14613;46.308;25.288;2022-10-16T14:25:00;21.30;59.10
27072;DHT22;14613;46.308;25.288;2022-10-16T14:27:30;21.20;59.20
27072;DHT22;14613;46.308;25.288;2022-10-16T14:32:52;21.10;59.20
27072;DHT22;14613;46.308;25.288;2022-10-16T14:35:38;21.00;59.30
27072;DHT22;14613;46.308;25.288;2022-10-16T14:38:06;20.90;59.30
27072;DHT22;14613;46.308;25.288;2022-10-16T14:40:47;20.80;59.30
27072;DHT22;14613;46.308;25.288;2022-10-16T14:45:56;20.60;59.50
27072;DHT22;14613;46.308;25.288;2022-10-16T14:48:22;20.40;59.50
27072;DHT22;14613;46.308;25.288;2022-10-16T14:50:48;20.30;59.60
27072;DHT22;14613;46.308;25.288;2022-10-16T14:53:15;20.20;59.70
27072;DHT22;14613;46.308;25.288;2022-10-16T14:55:41;20.10;59.90
27072;DHT22;14613;46.308;25.288;2022-10-16T14:58:16;20.00;60.00
27072;DHT22;14613;46.308;25.288;2022-10-16T15:00:43;19.80;60.10
27072;DHT22;14613;46.308;25.288;2022-10-16T15:03:09;19.70;60.30
27072;DHT22;14613;46.308;25.288;2022-10-16T15:05:34;19.60;60.50
27072;DHT22;14613;46.308;25.288;2022-10-16T15:08:00;19.50;60.60
27072;DHT22;14613;46.308;25.288;2022-10-16T15:10:27;19.40;60.80
27072;DHT22;14613;46.308;25.288;2022-10-16T15:12:54;19.30;60.90
27072;DHT22;14613;46.308;25.288;2022-10-16T15:17:55;19.10;61.20
27072;DHT22;14613;46.308;25.288;2022-10-16T15:20:23;18.90;61.90
27072;DHT22;14613;46.308;25.288;2022-10-16T15:22:49;18.80;61.50
27072;DHT22;14613;46.308;25.288;2022-10-16T15:25:41;18.70;61.80
27072;DHT22;14613;46.308;25.288;2022-10-16T15:28:08;18.50;61.90
27072;DHT22;14613;46.308;25.288;2022-10-16T15:30:35;18.40;62.10
27072;DHT22;14613;46.308;25.288;2022-10-16T15:33:02;18.30;62.30
27072;DHT22;14613;46.308;25.288;2022-10-16T15:35:28;18.20;62.50
27072;DHT22;14613;46.308;25.288;2022-10-16T15:37:54;18.00;62.70
27072;DHT22;14613;46.308;25.288;2022-10-16T15:40:21;17.90;62.90
27072;DHT22;14613;46.308;25.288;2022-10-16T15:42:48;17.80;63.20
27072;DHT22;14613;46.308;25.288;2022-10-16T15:45:14;17.60;63.40
27072;DHT22;14613;46.308;25.288;2022-10-16T15:47:43;17.50;63.70
27072;DHT22;14613;46.308;25.288;2022-10-16T15:50:10;17.40;63.90
27072;DHT22;14613;46.308;25.288;2022-10-16T15:52:37;17.30;64.10
27072;DHT22;14613;46.308;25.288;2022-10-16T15:55:06;17.20;64.30
27072;DHT22;14613;46.308;25.288;2022-10-16T15:57:32;17.10;64.50
27072;DHT22;14613;46.308;25.288;2022-10-16T15:59:58;16.90;64.60
27072;DHT22;14613;46.308;25.288;2022-10-16T16:02:23;16.80;64.90
27072;DHT22;14613;46.308;25.288;2022-10-16T16:04:49;16.70;65.20
27072;DHT22;14613;46.308;25.288;2022-10-16T16:07:15;16.60;65.40
27072;DHT22;14613;46.308;25.288;2022-10-16T16:09:40;16.40;65.60
27072;DHT22;14613;46.308;25.288;2022-10-16T16:12:06;16.30;65.90
27072;DHT22;14613;46.308;25.288;2022-10-16T16:14:32;16.20;66.10
27072;DHT22;14613;46.308;25.288;2022-10-16T16:16:58;16.10;66.30
27072;DHT22;14613;46.308;25.288;2022-10-16T16:19:24;16.00;66.50
27072;DHT22;14613;46.308;25.288;2022-10-16T16:21:50;15.90;66.60
27072;DHT22;14613;46.308;25.288;2022-10-16T16:24:16;15.80;66.60
27072;DHT22;14613;46.308;25.288;2022-10-16T16:26:42;15.70;66.70
27072;DHT22;14613;46.308;25.288;2022-10-16T16:29:14;15.60;67.00
27072;DHT22;14613;46.308;25.288;2022-10-16T16:31:40;15.50;67.20
27072;DHT22;14613;46.308;25.288;2022-10-16T16:34:07;15.40;67.30
27072;DHT22;14613;46.308;25.288;2022-10-16T16:36:35;15.30;67.50
27072;DHT22;14613;46.308;25.288;2022-10-16T16:39:01;15.30;67.60
27072;DHT22;14613;46.308;25.288;2022-10-16T16:41:28;15.20;67.80
27072;DHT22;14613;46.308;25.288;2022-10-16T16:43:55;15.10;67.90
27072;DHT22;14613;46.308;25.288;2022-10-16T16:46:26;15.00;68.00
27072;DHT22;14613;46.308;25.288;2022-10-16T16:48:51;15.00;68.20
27072;DHT22;14613;46.308;25.288;2022-10-16T16:51:21;14.90;68.40
27072;DHT22;14613;46.308;25.288;2022-10-16T16:53:48;14.80;68.40
27072;DHT22;14613;46.308;25.288;2022-10-16T16:56:14;14.70;68.60
27072;DHT22;14613;46.308;25.288;2022-10-16T16:58:40;14.70;68.70
27072;DHT22;14613;46.308;25.288;2022-10-16T17:01:09;14.60;68.90
27072;DHT22;14613;46.308;25.288;2022-10-16T17:03:35;14.50;69.00
27072;DHT22;14613;46.308;25.288;2022-10-16T17:06:06;14.40;69.10
27072;DHT22;14613;46.308;25.288;2022-10-16T17:08:34;14.40;69.30
27072;DHT22;14613;46.308;25.288;2022-10-16T17:11:00;14.30;69.40
27072;DHT22;14613;46.308;25.288;2022-10-16T17:13:32;14.20;69.60
27072;DHT22;14613;46.308;25.288;2022-10-16T17:16:04;14.10;69.70
27072;DHT22;14613;46.308;25.288;2022-10-16T17:18:30;14.10;69.90
27072;DHT22;14613;46.308;25.288;2022-10-16T17:21:01;14.00;70.00
27072;DHT22;14613;46.308;25.288;2022-10-16T17:23:26;14.00;70.10
27072;DHT22;14613;46.308;25.288;2022-10-16T17:25:53;13.90;70.30
27072;DHT22;14613;46.308;25.288;2022-10-16T17:28:19;13.80;70.40
27072;DHT22;14613;46.308;25.288;2022-10-16T17:30:45;13.70;70.60
27072;DHT22;14613;46.308;25.288;2022-10-16T17:33:11;13.60;70.80
27072;DHT22;14613;46.308;25.288;2022-10-16T17:35:40;13.50;71.00
27072;DHT22;14613;46.308;25.288;2022-10-16T17:38:06;13.40;71.10
27072;DHT22;14613;46.308;25.288;2022-10-16T17:40:33;13.30;71.20